Time;durP1;ratioP1;P1;durP2;ratioP2;P2;SDS_P1;SDS_P2;PMS_P1;PMS_P2;Temp;Humidity;BMP_temperature;BMP_pressure;BME280_temperature;BME280_humidity;BME280_pressure;Samples;Min_cycle;Max_cycle;Signal;HPM_P1;HPM_P2
2021/07/17 00:01:36;;;;;;;;;13.00;12.33;;;;;20.81;53.20;101947.47;5073110;27;47690;-50
2021/07/17 00:04:02;;;;;;;;;12.33;12.33;;;;;20.79;52.93;101942.13;5080582;27;45447;-47
2021/07/17 00:06:28;;;;;;;;;11.67;11.67;;;;;20.79;53.41;101950.22;5080838;27;45441;-48
2021/07/17 00:08:53;;;;;;;;;14.33;11.33;;;;;20.77;53.05;101952.13;5080596;27;45674;-48
2021/07/17 00:11:20;;;;;;;;;12.00;12.00;;;;;20.75;53.37;101947.75;5080246;27;48343;-48
2021/07/17 00:13:47;;;;;;;;;13.25;12.25;;;;;20.72;53.30;101940.69;5080391;27;45748;-48
2021/07/17 00:16:13;;;;;;;;;12.33;12.33;;;;;20.71;53.08;101952.41;5080347;27;45616;-50
2021/07/17 00:18:39;;;;;;;;;14.50;13.75;;;;;20.69;53.28;101950.69;5080151;27;45409;-49
2021/07/17 00:21:04;;;;;;;;;12.00;12.00;;;;;20.68;53.73;101952.53;5080099;27;47910;-48
2021/07/17 00:23:30;;;;;;;;;16.00;13.75;;;;;20.67;53.50;101949.91;5080048;27;45741;-46
2021/07/17 00:25:57;;;;;;;;;12.33;12.33;;;;;20.64;53.33;101945.53;5080315;27;45594;-50
2021/07/17 00:28:23;;;;;;;;;13.33;12.00;;;;;20.62;53.73;101946.53;5080338;27;45285;-50
2021/07/17 00:30:49;;;;;;;;;13.00;12.75;;;;;20.59;53.61;101954.78;5079398;27;47157;-51
2021/07/17 00:33:14;;;;;;;;;13.00;13.00;;;;;20.54;53.71;101947.75;5079964;27;45307;-50
2021/07/17 00:35:40;;;;;;;;;14.00;11.67;;;;;20.52;54.03;101949.63;5080034;27;45333;-47
2021/07/17 00:38:05;;;;;;;;;11.67;11.67;;;;;20.51;54.27;101949.69;5078143;27;45282;-51
2021/07/17 00:40:32;;;;;;;;;15.25;14.25;;;;;20.48;54.17;101944.44;5063050;27;45764;-51
2021/07/17 00:42:58;;;;;;;;;12.75;12.25;;;;;20.46;53.93;101949.91;5079574;27;45351;-50
2021/07/17 00:45:24;;;;;;;;;15.00;12.25;;;;;20.45;53.83;101952.66;5077092;27;45430;-46
2021/07/17 00:47:52;;;;;;;;;15.75;13.25;;;;;20.44;54.12;101949.06;5078230;28;45412;-48
2021/07/17 00:50:20;;;;;;;;;13.75;13.75;;;;;20.43;54.61;101946.44;5079653;27;47157;-51
2021/07/17 00:52:46;;;;;;;;;16.67;14.67;;;;;20.40;54.33;101944.72;5079429;27;46004;-50
2021/07/17 00:55:13;;;;;;;;;12.33;12.33;;;;;20.37;54.41;101947.56;5079537;27;45289;-49
2021/07/17 00:57:39;;;;;;;;;13.67;12.00;;;;;20.36;54.58;101945.81;5080050;28;45372;-49
2021/07/17 01:00:11;;;;;;;;;17.00;17.00;;;;;20.33;54.36;101945.97;5079429;28;47989;-51
2021/07/17 01:02:39;;;;;;;;;13.33;13.33;;;;;20.31;54.85;101945.13;5071541;27;45355;-50
2021/07/17 01:05:06;;;;;;;;;13.75;13.75;;;;;20.28;54.65;101948.84;5079589;27;45408;-50
2021/07/17 01:07:33;;;;;;;;;13.00;13.00;;;;;20.26;54.39;101948.03;5079759;27;45486;-49
2021/07/17 01:09:59;;;;;;;;;14.75;13.25;;;;;20.23;55.06;101950.84;5079271;27;47217;-49
2021/07/17 01:12:24;;;;;;;;;13.75;12.50;;;;;20.20;54.87;101945.59;5061079;28;45416;-51
2021/07/17 01:14:50;;;;;;;;;11.67;11.67;;;;;20.18;54.99;101952.84;5079366;27;45388;-51
2021/07/17 01:17:16;;;;;;;;;13.50;13.00;;;;;20.15;55.00;101949.41;5079711;28;45357;-51
2021/07/17 01:19:41;;;;;;;;;15.75;13.75;;;;;20.13;55.11;101951.31;5060821;27;48054;-50
2021/07/17 01:22:07;;;;;;;;;17.75;14.75;;;;;20.11;55.17;101950.50;5079382;27;45353;-51
2021/07/17 01:24:32;;;;;;;;;16.00;16.00;;;;;20.09;55.64;101950.56;5079261;27;45205;-46
2021/07/17 01:26:58;;;;;;;;;20.25;15.50;;;;;20.06;55.10;101953.38;5079099;28;45417;-51
2021/07/17 01:29:24;;;;;;;;;12.67;12.00;;;;;20.05;55.55;101945.34;5079320;27;46425;-52
2021/07/17 01:31:50;;;;;;;;;17.67;17.67;;;;;20.03;55.45;101947.22;5060827;28;45368;-51
2021/07/17 01:34:16;;;;;;;;;14.67;13.00;;;;;20.02;55.63;101943.66;5079355;27;45342;-52
2021/07/17 01:36:42;;;;;;;;;15.00;15.00;;;;;20.02;55.70;101940.97;5079088;27;45746;-48
2021/07/17 01:39:09;;;;;;;;;15.75;15.75;;;;;20.01;55.71;101931.13;5078402;27;47879;-50
2021/07/17 01:41:35;;;;;;;;;14.00;14.00;;;;;19.98;55.93;101928.56;5078892;27;45742;-51
2021/07/17 01:44:00;;;;;;;;;17.00;14.50;;;;;19.96;55.84;101935.84;5079854;27;45432;-49
2021/07/17 01:46:30;;;;;;;;;13.25;13.25;;;;;19.95;55.97;101928.72;5075456;27;45528;-49
2021/07/17 01:48:56;;;;;;;;;14.00;14.00;;;;;19.94;55.50;101935.00;5076757;27;48242;-47
2021/07/17 01:51:23;;;;;;;;;15.25;13.50;;;;;19.94;55.82;101935.00;5079023;27;45392;-48
2021/07/17 01:53:49;;;;;;;;;14.00;12.67;;;;;19.93;56.00;101933.25;5060597;28;45264;-49
2021/07/17 01:56:15;;;;;;;;;17.75;16.25;;;;;19.92;55.84;101931.50;5078927;27;45503;-46
2021/07/17 01:58:42;;;;;;;;;15.25;15.25;;;;;19.92;56.29;101928.81;5078453;27;48242;-50
2021/07/17 02:01:08;;;;;;;;;16.00;15.50;;;;;19.88;55.96;101930.75;5072744;27;46108;-47
2021/07/17 02:03:33;;;;;;;;;16.00;16.00;;;;;19.86;55.73;101934.47;5077369;27;45458;-48
2021/07/17 02:05:59;;;;;;;;;16.33;15.00;;;;;19.84;56.23;101936.34;5078962;27;45354;-49
2021/07/17 02:08:26;;;;;;;;;14.00;14.00;;;;;19.83;55.96;101938.16;5077940;28;46465;-47
2021/07/17 02:10:52;;;;;;;;;16.50;15.25;;;;;19.81;56.07;101942.72;5078115;27;45349;-48
2021/07/17 02:13:17;;;;;;;;;18.50;16.00;;;;;19.78;56.28;101944.66;5078825;27;45331;-47
2021/07/17 02:15:49;;;;;;;;;19.50;17.00;;;;;19.75;56.11;101945.66;5060846;28;45689;-50
2021/07/17 02:18:21;;;;;;;;;14.33;14.33;;;;;19.73;56.54;101947.56;5054303;27;46960;-48
2021/07/17 02:20:46;;;;;;;;;17.00;16.00;;;;;19.73;56.39;101941.28;5061242;27;45386;-49
2021/07/17 02:23:12;;;;;;;;;18.00;16.67;;;;;19.68;56.25;101934.25;5078538;27;45504;-48
2021/07/17 02:25:37;;;;;;;;;14.00;14.00;;;;;19.67;56.62;101935.19;5060887;27;45438;-47
2021/07/17 02:28:04;;;;;;;;;16.75;15.75;;;;;19.66;56.67;101943.34;5078781;28;45991;-49
2021/07/17 02:30:30;;;;;;;;;16.00;15.50;;;;;19.63;56.70;101930.88;5061116;28;45478;-47
2021/07/17 02:32:55;;;;;;;;;14.00;14.00;;;;;19.62;56.83;101929.13;5078456;27;45555;-48
2021/07/17 02:35:21;;;;;;;;;22.25;19.25;;;;;19.62;56.77;101929.13;5060636;28;45537;-50
2021/07/17 02:37:46;;;;;;;;;17.25;15.50;;;;;19.61;56.87;101923.81;5057034;27;48333;-49
2021/07/17 02:40:12;;;;;;;;;15.50;15.50;;;;;19.58;56.95;101935.59;5080347;27;45283;-49
2021/07/17 02:42:38;;;;;;;;;16.75;16.75;;;;;19.56;56.90;101932.06;5077937;27;45539;-50
2021/07/17 02:45:06;;;;;;;;;17.50;14.00;;;;;19.55;56.92;101941.06;5062414;28;45621;-46
2021/07/17 02:47:32;;;;;;;;;17.00;17.00;;;;;19.54;56.76;101936.59;5057170;27;48227;-50
2021/07/17 02:49:57;;;;;;;;;15.67;15.00;;;;;19.51;57.05;101942.09;5078289;28;45546;-50
2021/07/17 02:52:23;;;;;;;;;14.75;14.75;;;;;19.46;57.32;101930.66;5060275;28;45660;-51
2021/07/17 02:54:48;;;;;;;;;17.25;16.00;;;;;19.43;57.38;101930.75;5078470;27;45404;-48
2021/07/17 02:57:14;;;;;;;;;16.50;15.50;;;;;19.43;57.15;101925.38;5078494;27;45537;-50
2021/07/17 02:59:39;;;;;;;;;15.75;15.75;;;;;19.40;57.43;101925.50;5078929;28;45358;-48
2021/07/17 03:02:05;;;;;;;;;18.75;16.75;;;;;19.37;57.15;101931.00;5070195;27;45523;-48
2021/07/17 03:04:30;;;;;;;;;19.75;18.50;;;;;19.36;57.28;101930.13;5078672;28;45582;-47
2021/07/17 03:06:56;;;;;;;;;16.50;16.50;;;;;19.34;57.34;101929.31;5060060;28;47282;-50
2021/07/17 03:09:21;;;;;;;;;17.25;16.25;;;;;19.34;57.55;101933.81;5078055;27;45398;-48
2021/07/17 03:11:47;;;;;;;;;18.67;16.67;;;;;19.33;57.77;101938.34;5059744;28;45438;-50
2021/07/17 03:14:13;;;;;;;;;17.25;16.50;;;;;19.33;57.50;101940.16;5078421;27;45697;-48
2021/07/17 03:16:38;;;;;;;;;17.25;15.50;;;;;19.33;57.23;101932.06;5059823;27;47630;-48
2021/07/17 03:19:04;;;;;;;;;18.00;16.50;;;;;19.32;57.60;101933.00;5039704;28;45370;-47
2021/07/17 03:21:30;;;;;;;;;17.25;17.25;;;;;19.30;57.76;101930.34;5078672;27;45227;-47
2021/07/17 03:23:56;;;;;;;;;20.50;17.50;;;;;19.32;57.80;101930.31;5081471;27;45291;-51
2021/07/17 03:26:22;;;;;;;;;13.75;13.75;;;;;19.32;57.91;101935.69;5063246;27;46786;-47
2021/07/17 03:28:47;;;;;;;;;19.25;17.25;;;;;19.31;57.68;101931.22;5064039;28;45286;-51
2021/07/17 03:31:13;;;;;;;;;17.50;16.00;;;;;19.30;58.16;101933.03;5064172;27;45375;-50
2021/07/17 03:33:38;;;;;;;;;17.00;15.00;;;;;19.30;57.92;101935.72;5064221;28;45454;-48
2021/07/17 03:36:04;;;;;;;;;18.75;17.50;;;;;19.28;58.05;101934.03;5081877;27;48216;-49
2021/07/17 03:38:30;;;;;;;;;18.75;18.00;;;;;19.27;58.23;101925.09;5078825;27;45758;-50
2021/07/17 03:40:55;;;;;;;;;21.75;19.75;;;;;19.27;58.07;101932.28;5082169;27;45477;-49
2021/07/17 03:43:21;;;;;;;;;17.75;16.75;;;;;19.27;57.93;101932.28;5063336;28;45774;-52
2021/07/17 03:45:46;;;;;;;;;17.25;17.25;;;;;19.26;57.91;101925.16;5078251;27;47226;-50
2021/07/17 03:48:12;;;;;;;;;18.75;18.50;;;;;19.25;58.01;101926.09;5078776;27;45708;-48
2021/07/17 03:50:38;;;;;;;;;19.25;19.00;;;;;19.25;58.13;101926.09;5062576;27;45497;-49
2021/07/17 03:53:04;;;;;;;;;20.75;16.75;;;;;19.24;58.43;101925.22;5081268;27;45311;-50
2021/07/17 03:55:30;;;;;;;;;15.00;15.00;;;;;19.21;57.93;101919.97;5080268;27;47363;-49
2021/07/17 03:57:56;;;;;;;;;19.50;16.50;;;;;19.19;57.99;101929.91;5080831;27;45771;-52
2021/07/17 04:00:22;;;;;;;;;17.50;17.50;;;;;19.20;58.25;101926.28;5062543;27;45349;-52
2021/07/17 04:02:47;;;;;;;;;24.75;21.50;;;;;19.18;58.07;101930.81;5062600;28;45555;-52
2021/07/17 04:05:16;;;;;;;;;17.75;15.00;;;;;19.16;58.12;101931.81;5080695;27;47370;-51
2021/07/17 04:07:42;;;;;;;;;21.25;19.50;;;;;19.13;58.31;101940.91;5080720;27;45483;-50
2021/07/17 04:10:10;;;;;;;;;19.25;17.00;;;;;19.10;58.44;101935.63;5080578;27;45353;-50
2021/07/17 04:12:36;;;;;;;;;16.75;15.50;;;;;19.08;58.40;101941.09;5080986;27;44867;-52
2021/07/17 04:15:04;;;;;;;;;24.00;21.25;;;;;19.08;58.55;101943.78;5080293;27;45255;-52
2021/07/17 04:17:29;;;;;;;;;16.75;16.00;;;;;19.07;58.23;101938.44;5062381;27;45499;-49
2021/07/17 04:19:55;;;;;;;;;18.75;18.50;;;;;19.05;58.43;101942.97;5080427;27;45342;-51
2021/07/17 04:22:20;;;;;;;;;18.00;16.25;;;;;19.00;58.49;101935.09;5080917;27;45306;-48
2021/07/17 04:24:46;;;;;;;;;18.33;16.33;;;;;18.97;58.19;101932.53;5080044;27;47201;-51
2021/07/17 04:27:12;;;;;;;;;19.75;18.75;;;;;18.95;58.67;101944.28;5080231;27;45479;-52
2021/07/17 04:29:38;;;;;;;;;17.75;17.25;;;;;18.92;58.67;101945.25;5062468;27;45378;-49
2021/07/17 04:32:04;;;;;;;;;15.50;15.50;;;;;18.92;58.72;101947.94;5062129;28;45579;-50
2021/07/17 04:34:30;;;;;;;;;16.50;15.25;;;;;18.92;58.67;101937.19;5061737;28;48385;-50
2021/07/17 04:36:55;;;;;;;;;18.25;18.25;;;;;18.93;59.00;101938.97;5062137;28;45855;-47
2021/07/17 04:39:21;;;;;;;;;19.25;17.25;;;;;18.96;58.96;101935.28;5079617;27;45592;-50
2021/07/17 04:41:46;;;;;;;;;18.33;18.33;;;;;18.95;58.65;101944.28;5080423;27;45437;-49
2021/07/17 04:44:12;;;;;;;;;16.33;16.00;;;;;18.96;59.11;101937.97;5063333;27;47999;-51
2021/07/17 04:46:37;;;;;;;;;18.50;18.00;;;;;18.99;59.01;101944.09;5075406;28;45322;-47
2021/07/17 04:49:03;;;;;;;;;18.75;18.50;;;;;18.97;58.92;101947.78;5078586;27;45296;-51
2021/07/17 04:51:28;;;;;;;;;20.50;18.25;;;;;18.98;59.03;101945.03;5081134;27;45610;-52
2021/07/17 04:53:54;;;;;;;;;21.25;16.50;;;;;18.98;58.76;101954.94;5080011;27;46063;-50
2021/07/17 04:56:20;;;;;;;;;19.50;19.50;;;;;18.96;58.89;101954.09;5061592;28;45414;-52
2021/07/17 04:58:45;;;;;;;;;20.00;17.25;;;;;18.97;58.72;101962.13;5079792;27;45770;-49
2021/07/17 05:01:11;;;;;;;;;18.25;16.00;;;;;19.01;59.08;101960.19;5076778;27;45655;-51
2021/07/17 05:03:36;;;;;;;;;17.75;15.75;;;;;19.02;59.26;101965.50;5062247;28;45821;-49
2021/07/17 05:06:05;;;;;;;;;18.75;18.25;;;;;19.06;59.06;101963.59;5059146;28;45379;-50
2021/07/17 05:08:31;;;;;;;;;21.00;17.75;;;;;19.08;58.70;101969.81;5040741;28;45661;-48
2021/07/17 05:10:57;;;;;;;;;21.00;20.00;;;;;19.09;58.91;101967.03;5041535;28;45520;-49
2021/07/17 05:13:24;;;;;;;;;18.50;17.50;;;;;19.11;58.84;101969.69;5059302;28;47257;-51
2021/07/17 05:15:50;;;;;;;;;17.50;15.00;;;;;19.10;58.90;101976.88;5059745;28;45759;-50
2021/07/17 05:18:16;;;;;;;;;20.00;17.67;;;;;19.11;58.70;101961.59;5059536;28;45397;-50
2021/07/17 05:20:42;;;;;;;;;18.50;18.00;;;;;19.14;58.95;101960.59;5059437;28;45815;-49
2021/07/17 05:23:09;;;;;;;;;21.00;18.25;;;;;19.15;58.68;101962.34;5059119;28;46935;-51
2021/07/17 05:25:35;;;;;;;;;25.50;23.75;;;;;19.20;59.08;101961.28;5059218;28;45449;-50
2021/07/17 05:28:02;;;;;;;;;21.75;20.00;;;;;19.21;58.56;101956.75;5059555;28;45326;-50
2021/07/17 05:30:27;;;;;;;;;20.25;19.50;;;;;19.26;58.38;101965.53;5059467;28;45352;-47
2021/07/17 05:32:53;;;;;;;;;27.50;26.25;;;;;19.25;58.59;101961.97;5075880;28;47016;-50
2021/07/17 05:35:19;;;;;;;;;19.25;19.25;;;;;19.26;58.81;101962.84;5079773;28;45716;-51
2021/07/17 05:37:45;;;;;;;;;18.00;17.75;;;;;19.28;58.67;101966.34;5074474;27;45397;-52
2021/07/17 05:40:11;;;;;;;;;19.25;19.00;;;;;19.30;58.76;101953.69;5059337;28;45358;-50
2021/07/17 05:42:37;;;;;;;;;19.75;19.00;;;;;19.31;58.36;101952.75;5058537;28;46509;-52
2021/07/17 05:45:03;;;;;;;;;25.75;22.25;;;;;19.33;58.34;101957.19;5060760;28;45953;-49
2021/07/17 05:47:29;;;;;;;;;17.75;16.75;;;;;19.36;58.59;101954.34;5074048;28;45319;-52
2021/07/17 05:49:55;;;;;;;;;19.25;15.50;;;;;19.40;58.41;101957.78;5079343;27;45491;-52
2021/07/17 05:52:20;;;;;;;;;20.75;18.25;;;;;19.42;58.63;101956.78;5079041;27;47337;-48
2021/07/17 05:54:46;;;;;;;;;19.75;18.50;;;;;19.48;58.50;101952.13;5078222;27;45286;-53
2021/07/17 05:57:11;;;;;;;;;25.50;21.75;;;;;19.54;58.34;101959.94;5060684;28;45815;-50
2021/07/17 05:59:37;;;;;;;;;22.00;21.50;;;;;19.57;58.37;101954.50;5079075;27;45417;-52
2021/07/17 06:02:04;;;;;;;;;20.50;20.50;;;;;19.59;58.52;101958.88;5074694;27;46186;-50
2021/07/17 06:04:30;;;;;;;;;24.25;23.25;;;;;19.60;58.29;101959.75;5079096;28;45464;-48
2021/07/17 06:06:56;;;;;;;;;24.25;23.25;;;;;19.62;58.36;101958.75;5078607;28;45313;-49
2021/07/17 06:09:22;;;;;;;;;29.75;26.75;;;;;19.63;57.94;101963.19;5078809;27;45448;-48
2021/07/17 06:11:48;;;;;;;;;31.75;29.00;;;;;19.65;58.24;101957.75;5078054;27;48300;-49
2021/07/17 06:14:13;;;;;;;;;28.50;24.50;;;;;19.64;58.39;101958.69;5078764;27;45352;-50
2021/07/17 06:16:39;;;;;;;;;21.50;20.25;;;;;19.65;58.03;101958.63;5078701;27;45417;-50
2021/07/17 06:19:05;;;;;;;;;24.25;22.00;;;;;19.69;58.24;101959.38;5079023;28;45244;-51
2021/07/17 06:21:31;;;;;;;;;25.50;23.00;;;;;19.69;58.05;101965.66;5078683;27;48032;-50
2021/07/17 06:23:57;;;;;;;;;19.25;17.75;;;;;19.73;58.12;101961.03;5078561;27;45565;-48
2021/07/17 06:26:23;;;;;;;;;24.50;22.50;;;;;19.76;58.33;101952.81;5078480;28;45410;-48
2021/07/17 06:28:48;;;;;;;;;23.00;21.25;;;;;19.79;58.12;101962.59;5060336;28;45873;-52
2021/07/17 06:31:15;;;;;;;;;20.75;20.75;;;;;19.81;58.54;101961.56;5078435;27;47189;-50
2021/07/17 06:33:40;;;;;;;;;23.25;20.25;;;;;19.85;58.47;101959.66;5060709;28;45728;-52
2021/07/17 06:36:07;;;;;;;;;25.25;22.75;;;;;19.87;58.24;101965.84;5058983;28;45393;-48
2021/07/17 06:38:33;;;;;;;;;21.75;20.25;;;;;19.89;58.09;101972.06;5040805;28;45639;-50
2021/07/17 06:40:59;;;;;;;;;27.75;23.75;;;;;19.93;58.35;101977.25;5077414;27;48163;-48
2021/07/17 06:43:24;;;;;;;;;25.00;24.00;;;;;19.97;58.38;101975.31;5060469;28;45354;-49
2021/07/17 06:45:50;;;;;;;;;22.75;22.25;;;;;20.01;58.02;101982.34;5075632;27;45580;-50
2021/07/17 06:48:15;;;;;;;;;19.75;19.75;;;;;20.05;57.79;101980.38;5076163;28;45342;-50
2021/07/17 06:50:40;;;;;;;;;20.50;20.50;;;;;20.10;57.99;101983.78;5043051;28;46201;-51
2021/07/17 06:53:06;;;;;;;;;24.75;20.75;;;;;20.14;57.94;101977.31;5078391;27;45428;-48
2021/07/17 06:55:33;;;;;;;;;24.25;21.25;;;;;20.18;57.91;101979.81;5080459;27;45294;-48
2021/07/17 06:57:59;;;;;;;;;24.75;24.00;;;;;20.23;57.92;101977.81;5082397;27;45477;-47
2021/07/17 07:00:25;;;;;;;;;24.25;23.25;;;;;20.31;57.76;101976.59;5081817;27;45420;-47
2021/07/17 07:02:50;;;;;;;;;27.50;25.25;;;;;20.34;57.46;101982.75;5074502;27;45504;-49
2021/07/17 07:05:16;;;;;;;;;26.50;25.75;;;;;20.35;57.45;101987.22;5082196;27;45414;-50
2021/07/17 07:07:42;;;;;;;;;27.75;26.25;;;;;20.36;57.78;101988.09;5082265;27;45349;-49
2021/07/17 07:10:08;;;;;;;;;26.00;21.50;;;;;20.42;58.26;101983.31;5081521;27;47060;-51
2021/07/17 07:12:38;;;;;;;;;28.50;25.50;;;;;20.49;57.40;101986.66;5082155;27;45867;-48
2021/07/17 07:15:08;;;;;;;;;25.25;24.25;;;;;20.53;57.65;101982.88;5081452;27;45489;-51
2021/07/17 07:17:34;;;;;;;;;29.25;26.25;;;;;20.57;57.77;101979.09;5063763;27;45343;-49
2021/07/17 07:19:59;;;;;;;;;26.00;24.00;;;;;20.61;57.48;101986.13;5066553;27;47696;-52
2021/07/17 07:22:25;;;;;;;;;22.50;19.50;;;;;20.63;57.37;101988.75;5080985;27;45350;-51
2021/07/17 07:24:51;;;;;;;;;31.00;28.75;;;;;20.67;57.35;101990.38;5063059;28;45346;-50
2021/07/17 07:27:16;;;;;;;;;25.50;25.25;;;;;20.73;57.82;101993.69;5081857;27;45619;-49
2021/07/17 07:29:42;;;;;;;;;23.25;22.25;;;;;20.75;57.02;102001.72;5063256;27;45432;-49
2021/07/17 07:32:07;;;;;;;;;25.50;22.75;;;;;20.76;57.35;102001.63;5081468;27;45309;-46
2021/07/17 07:34:33;;;;;;;;;20.00;20.00;;;;;20.80;57.43;102005.06;5062854;28;45437;-53
2021/07/17 07:36:58;;;;;;;;;25.00;23.50;;;;;20.84;57.19;102006.72;5081091;27;45302;-51
2021/07/17 07:39:24;;;;;;;;;25.75;23.00;;;;;20.85;57.01;102000.38;5045082;28;46817;-51
2021/07/17 07:41:49;;;;;;;;;26.00;23.00;;;;;20.89;57.76;102006.50;5063695;28;45382;-49
2021/07/17 07:44:15;;;;;;;;;25.75;24.50;;;;;20.93;57.08;102010.78;5061239;28;45523;-47
2021/07/17 07:46:41;;;;;;;;;27.00;26.50;;;;;20.94;57.57;102012.56;5055429;28;45670;-51
2021/07/17 07:49:07;;;;;;;;;30.50;30.25;;;;;20.93;57.67;102016.19;5058887;28;46353;-48
2021/07/17 07:51:34;;;;;;;;;23.75;22.25;;;;;20.93;57.64;102021.59;5060406;27;45382;-49
2021/07/17 07:53:59;;;;;;;;;27.75;25.75;;;;;20.96;57.40;102005.25;5060105;28;45262;-48
2021/07/17 07:56:25;;;;;;;;;29.50;27.25;;;;;21.02;57.19;102005.88;5062961;28;45290;-50
2021/07/17 07:58:50;;;;;;;;;23.25;22.00;;;;;21.09;57.41;102011.88;5059027;28;45502;-47
2021/07/17 08:01:16;;;;;;;;;31.75;27.50;;;;;21.15;57.01;102012.47;5062717;28;45381;-50
2021/07/17 08:03:43;;;;;;;;;28.75;27.75;;;;;21.20;57.00;102014.06;5074810;28;45294;-51
2021/07/17 08:06:10;;;;;;;;;28.50;24.50;;;;;21.25;56.71;102022.88;5071575;28;45558;-53
2021/07/17 08:08:37;;;;;;;;;26.75;26.25;;;;;21.30;56.51;102021.72;5066862;28;49594;-49
2021/07/17 08:11:04;;;;;;;;;26.50;24.00;;;;;21.34;56.64;102017.06;5068938;28;45392;-47
2021/07/17 08:13:32;;;;;;;;;26.75;25.25;;;;;21.37;56.70;102025.03;5069359;28;45425;-52
2021/07/17 08:16:01;;;;;;;;;26.25;24.75;;;;;21.41;56.93;102021.25;5066578;28;45345;-51
2021/07/17 08:18:28;;;;;;;;;27.00;26.50;;;;;21.49;56.71;102026.28;5063322;28;46547;-47
2021/07/17 08:20:53;;;;;;;;;23.50;22.50;;;;;21.53;56.27;102017.09;5059930;28;45329;-47
2021/07/17 08:23:19;;;;;;;;;25.50;25.50;;;;;21.55;56.65;102016.06;5068384;28;45369;-50
2021/07/17 08:25:44;;;;;;;;;25.50;25.00;;;;;21.59;56.81;102016.78;5057156;28;45342;-48
2021/07/17 08:28:09;;;;;;;;;24.75;24.00;;;;;21.61;56.69;102009.53;5065467;28;47282;-49
2021/07/17 08:30:37;;;;;;;;;27.00;24.00;;;;;21.66;56.27;102007.47;5059804;28;45880;-47
2021/07/17 08:33:04;;;;;;;;;24.75;24.50;;;;;21.74;56.63;102005.28;5060168;28;45286;-49
2021/07/17 08:35:29;;;;;;;;;25.50;24.75;;;;;21.81;56.41;102022.06;5060077;28;45386;-50
2021/07/17 08:37:55;;;;;;;;;30.25;29.75;;;;;21.86;56.32;102015.50;5057705;28;47466;-51
2021/07/17 08:40:22;;;;;;;;;34.25;29.50;;;;;21.91;56.36;102013.44;5055316;28;45457;-52
2021/07/17 08:42:50;;;;;;;;;23.25;21.00;;;;;21.96;55.84;102015.91;5059495;28;45521;-51
2021/07/17 08:45:17;;;;;;;;;25.00;23.25;;;;;22.02;55.46;102012.91;5080472;27;45465;-46
2021/07/17 08:47:44;;;;;;;;;29.50;25.00;;;;;22.03;55.69;102014.66;5077518;27;46647;-50
2021/07/17 08:50:16;;;;;;;;;28.25;25.75;;;;;22.09;55.89;102016.22;5079614;27;45405;-48
2021/07/17 08:52:43;;;;;;;;;22.75;21.25;;;;;22.14;55.95;102012.34;5079611;27;45322;-49
2021/07/17 08:55:10;;;;;;;;;23.25;23.25;;;;;22.19;55.45;102017.53;5061602;27;45405;-46
2021/07/17 08:57:40;;;;;;;;;24.25;24.00;;;;;22.23;55.79;102019.09;5061552;28;45463;-47
2021/07/17 09:00:17;;;;;;;;;23.25;22.00;;;;;22.30;55.68;102018.75;5083964;27;46047;-51
2021/07/17 09:02:45;;;;;;;;;26.75;25.75;;;;;22.36;55.54;102009.47;5078531;27;45553;-51
2021/07/17 09:05:13;;;;;;;;;23.75;23.75;;;;;22.37;55.14;102013.91;5079462;27;45559;-48
2021/07/17 09:07:39;;;;;;;;;27.75;27.00;;;;;22.40;55.50;102013.75;5061338;28;47641;-50
2021/07/17 09:10:28;;;;;;;;;23.75;23.25;;;;;22.47;55.14;102008.88;5060959;27;45448;-50
2021/07/17 09:13:08;;;;;;;;;23.50;23.50;;;;;22.54;55.44;101999.53;5059167;28;45347;-50
2021/07/17 09:15:34;;;;;;;;;21.25;21.00;;;;;22.61;55.40;101993.72;5079727;27;45547;-49
2021/07/17 09:18:00;;;;;;;;;22.25;21.00;;;;;22.65;54.45;101994.44;5079221;27;46475;-49
2021/07/17 09:20:27;;;;;;;;;26.00;22.50;;;;;22.69;54.96;102001.44;5088217;27;45297;-50
2021/07/17 09:23:09;;;;;;;;;22.50;20.75;;;;;22.73;54.65;102005.72;5073737;28;45306;-49
2021/07/17 09:25:41;;;;;;;;;20.25;20.25;;;;;22.83;54.59;102003.44;5090754;27;44761;-50
2021/07/17 09:28:28;;;;;;;;;24.00;24.00;;;;;22.93;54.88;101993.00;5069184;28;45396;-50
2021/07/17 09:30:59;;;;;;;;;24.25;22.50;;;;;23.00;54.42;101995.31;5078575;27;45418;-48
2021/07/17 09:33:28;;;;;;;;;25.25;24.75;;;;;23.09;54.26;102000.22;5070139;27;45436;-51
2021/07/17 09:35:57;;;;;;;;;24.25;24.25;;;;;23.17;54.51;101998.00;5081454;27;45334;-50
2021/07/17 09:38:25;;;;;;;;;24.75;23.75;;;;;23.25;54.28;101986.75;5058554;27;47208;-50
2021/07/17 09:41:05;;;;;;;;;30.50;25.25;;;;;23.30;53.67;101986.50;5078670;27;45405;-46
2021/07/17 09:43:41;;;;;;;;;24.25;23.50;;;;;23.32;53.38;101985.44;5083534;27;45397;-49
2021/07/17 09:46:22;;;;;;;;;19.00;18.75;;;;;23.36;53.56;101978.00;5061822;28;45426;-47
2021/07/17 09:48:49;;;;;;;;;23.00;23.00;;;;;23.39;53.42;101984.16;5076919;27;47951;-48
2021/07/17 09:51:23;;;;;;;;;22.75;22.75;;;;;23.44;52.99;101984.75;5079092;27;45351;-52
2021/07/17 09:53:51;;;;;;;;;23.25;21.25;;;;;23.46;52.86;101984.69;5078891;27;45744;-48
2021/07/17 09:56:19;;;;;;;;;21.50;21.50;;;;;23.45;53.00;101980.22;5078840;27;45294;-52
2021/07/17 09:58:45;;;;;;;;;27.75;24.00;;;;;23.47;52.72;101975.59;5060496;28;48385;-49
2021/07/17 10:01:12;;;;;;;;;26.00;21.75;;;;;23.53;52.97;101983.38;5072432;27;45691;-49
2021/07/17 10:03:39;;;;;;;;;23.50;23.00;;;;;23.60;52.92;101987.53;5077820;27;45614;-51
2021/07/17 10:06:07;;;;;;;;;23.25;20.75;;;;;23.63;52.68;101987.38;5078980;27;45641;-51
2021/07/17 10:08:36;;;;;;;;;25.00;23.75;;;;;23.65;52.57;101988.16;5078752;27;48392;-50
2021/07/17 10:11:11;;;;;;;;;24.75;23.75;;;;;23.72;52.32;101977.81;5078750;27;45333;-48
2021/07/17 10:13:40;;;;;;;;;23.75;20.25;;;;;23.76;52.58;101988.44;5079042;27;45477;-50
2021/07/17 10:16:16;;;;;;;;;22.75;21.25;;;;;23.75;52.29;101983.06;5078814;27;45538;-50
2021/07/17 10:18:42;;;;;;;;;21.50;20.00;;;;;23.75;52.40;101991.19;5078531;27;47372;-49
2021/07/17 10:21:08;;;;;;;;;23.00;23.00;;;;;23.73;52.21;101990.41;5060428;28;46005;-51
2021/07/17 10:23:34;;;;;;;;;25.50;22.00;;;;;23.69;52.40;101992.44;5078564;28;45306;-47
2021/07/17 10:26:01;;;;;;;;;26.25;23.50;;;;;23.67;52.28;101990.78;5060739;27;45430;-52
2021/07/17 10:28:27;;;;;;;;;26.75;23.75;;;;;23.67;52.20;101988.94;5078607;28;47583;-50
2021/07/17 10:30:53;;;;;;;;;25.50;23.75;;;;;23.67;52.50;101980.81;5046174;27;45558;-51
2021/07/17 10:33:19;;;;;;;;;23.00;22.50;;;;;23.72;52.40;101984.13;5082517;27;45279;-50
2021/07/17 10:35:46;;;;;;;;;28.50;26.25;;;;;23.78;51.98;101986.50;5064152;27;45507;-49
2021/07/17 10:38:14;;;;;;;;;25.00;24.50;;;;;23.82;52.29;101984.47;5064236;28;46382;-49
2021/07/17 10:40:40;;;;;;;;;24.75;24.25;;;;;23.84;52.21;101978.97;5083046;27;45732;-52
2021/07/17 10:43:07;;;;;;;;;22.75;21.00;;;;;23.85;51.85;101976.16;5081820;27;45404;-47
2021/07/17 10:45:40;;;;;;;;;24.75;24.25;;;;;23.85;51.85;101983.41;5078811;27;45462;-46
2021/07/17 10:48:32;;;;;;;;;22.00;22.00;;;;;23.85;51.56;101984.28;5081680;27;46878;-48
2021/07/17 10:51:22;;;;;;;;;24.75;21.75;;;;;23.83;51.92;101978.09;5080024;27;45290;-50
2021/07/17 10:54:00;;;;;;;;;27.00;25.75;;;;;23.85;51.58;101978.88;5081318;27;45371;-47
2021/07/17 10:56:29;;;;;;;;;24.50;21.50;;;;;23.83;51.39;101972.66;5060220;28;45588;-50
2021/07/17 10:59:00;;;;;;;;;21.00;21.00;;;;;23.84;51.38;101974.41;5059915;28;46699;-50
2021/07/17 11:01:27;;;;;;;;;24.25;22.75;;;;;23.87;51.63;101978.78;5067011;27;45448;-51
2021/07/17 11:03:53;;;;;;;;;20.25;20.00;;;;;23.90;51.47;101965.06;5081860;27;45293;-48
2021/07/17 11:06:29;;;;;;;;;30.75;24.50;;;;;23.96;51.30;101971.00;5082115;27;45328;-49
2021/07/17 11:08:57;;;;;;;;;21.00;20.00;;;;;24.04;51.07;101976.00;5081100;27;47737;-49